Time;durP1;ratioP1;P1;durP2;ratioP2;P2;SDS_P1;SDS_P2;PMS_P1;PMS_P2;Temp;Humidity;BMP_temperature;BMP_pressure;BME280_temperature;BME280_humidity;BME280_pressure;Samples;Min_cycle;Max_cycle;Signal;HPM_P1;HPM_P2
2022/06/24 00:00:06;;;;;;;24.58;12.27;;;;;;;20.36;100.00;100565.16;5069160;28;20392;-73
2022/06/24 00:02:32;;;;;;;16.60;11.50;;;;;;;20.31;100.00;100597.28;5066095;28;20408;-72
2022/06/24 00:05:03;;;;;;;21.27;12.80;;;;;;;20.28;100.00;100623.94;5069668;28;20021;-72
2022/06/24 00:07:28;;;;;;;20.40;12.93;;;;;;;20.18;100.00;100656.44;5068597;28;20199;-72
2022/06/24 00:09:54;;;;;;;20.58;13.90;;;;;;;20.21;100.00;100667.66;5070967;28;20604;-72
2022/06/24 00:12:23;;;;;;;22.10;13.85;;;;;;;20.28;100.00;100661.00;5067164;28;20033;-72
2022/06/24 00:15:00;;;;;;;29.40;14.90;;;;;;;20.17;100.00;100644.97;5071118;28;20507;-73
2022/06/24 00:17:32;;;;;;;46.65;17.73;;;;;;;19.97;100.00;100653.38;5071140;28;20055;-74
2022/06/24 00:20:03;;;;;;;33.33;20.25;;;;;;;19.95;100.00;100663.25;5057359;28;20100;-73
2022/06/24 00:22:30;;;;;;;54.55;25.45;;;;;;;20.17;100.00;100668.78;5069010;28;20041;-73
2022/06/24 00:25:25;;;;;;;51.72;31.10;;;;;;;20.08;100.00;100709.13;5070209;28;20062;-74
2022/06/24 00:28:00;;;;;;;50.40;31.55;;;;;;;20.15;100.00;100717.50;5066392;28;20120;-74
2022/06/24 00:30:25;;;;;;;42.45;30.63;;;;;;;20.07;100.00;100715.34;5056372;28;20021;-73
2022/06/24 00:32:51;;;;;;;41.45;31.17;;;;;;;20.09;100.00;100724.03;5064017;28;20025;-74
2022/06/24 00:35:18;;;;;;;43.22;29.52;;;;;;;20.04;100.00;100734.06;5068744;28;20491;-74
2022/06/24 00:37:45;;;;;;;42.65;27.15;;;;;;;19.98;100.00;100745.03;5070600;28;20150;-74
2022/06/24 00:40:10;;;;;;;120.15;35.42;;;;;;;19.96;100.00;100755.72;5071036;28;20369;-73
2022/06/24 00:42:40;;;;;;;64.17;27.17;;;;;;;19.77;100.00;100756.06;5057693;28;20031;-73
2022/06/24 00:45:35;;;;;;;80.97;29.90;;;;;;;19.82;100.00;100734.63;5071254;28;20040;-74
2022/06/24 00:48:07;;;;;;;38.13;21.77;;;;;;;19.88;100.00;100724.50;5061550;28;20029;-74
2022/06/24 00:50:34;;;;;;;38.77;21.83;;;;;;;19.84;100.00;100709.72;5071227;28;20024;-73
2022/06/24 00:53:00;;;;;;;50.78;22.92;;;;;;;19.85;100.00;100716.75;5055494;28;20689;-73
2022/06/24 00:55:29;;;;;;;261.45;41.67;;;;;;;19.72;100.00;100725.53;5066359;28;20507;-73
2022/06/24 00:57:55;;;;;;;25.75;16.08;;;;;;;19.53;100.00;100728.50;5069975;28;20032;-73
2022/06/24 01:00:30;;;;;;;28.33;15.75;;;;;;;19.52;100.00;100717.06;5070532;28;20111;-73
2022/06/24 01:02:58;;;;;;;17.70;14.00;;;;;;;19.45;100.00;100709.59;5068208;28;20058;-73
2022/06/24 01:05:24;;;;;;;13.43;9.60;;;;;;;19.33;100.00;100717.34;5070110;28;20029;-74
2022/06/24 01:07:49;;;;;;;9.57;6.82;;;;;;;19.09;100.00;100703.84;5070301;28;20027;-74
2022/06/24 01:10:14;;;;;;;31.08;9.30;;;;;;;19.08;100.00;100699.50;5071488;28;20021;-74
2022/06/24 01:12:40;;;;;;;13.32;6.65;;;;;;;18.87;100.00;100680.53;5069246;28;20078;-73
2022/06/24 01:15:06;;;;;;;23.05;7.10;;;;;;;18.83;100.00;100659.69;5070815;28;20025;-74
2022/06/24 01:17:32;;;;;;;9.80;4.88;;;;;;;18.64;100.00;100671.34;5074842;28;20028;-73
2022/06/24 01:19:57;;;;;;;7.28;3.70;;;;;;;18.51;100.00;100656.28;5060338;28;20027;-73
2022/06/24 01:22:24;;;;;;;10.35;3.47;;;;;;;18.32;100.00;100661.84;5065951;28;20029;-74
2022/06/24 01:24:50;;;;;;;6.03;3.22;;;;;;;18.39;100.00;100666.66;5069254;28;20025;-74
2022/06/24 01:27:16;;;;;;;159.10;17.10;;;;;;;18.17;100.00;100660.91;5074634;28;20402;-74
2022/06/24 01:29:42;;;;;;;6.22;3.10;;;;;;;18.15;100.00;100661.03;5070967;28;20024;-74
2022/06/24 01:32:07;;;;;;;5.50;3.05;;;;;;;18.07;100.00;100652.69;5069472;28;20036;-74
2022/06/24 01:34:33;;;;;;;3.83;2.58;;;;;;;18.05;100.00;100649.31;5065575;28;20020;-73
2022/06/24 01:36:58;;;;;;;4.88;2.90;;;;;;;17.98;100.00;100658.47;5073929;28;20143;-73
2022/06/24 01:39:24;;;;;;;4.22;2.47;;;;;;;18.07;100.00;100662.41;5074544;28;20111;-73
2022/06/24 01:41:50;;;;;;;4.05;2.80;;;;;;;17.99;100.00;100663.69;5071284;28;20074;-73
2022/06/24 01:44:16;;;;;;;5.32;2.25;;;;;;;17.77;100.00;100647.38;5071943;28;20170;-73
2022/06/24 01:46:41;;;;;;;5.72;2.70;;;;;;;17.80;100.00;100633.19;5074055;28;20112;-73
2022/06/24 01:49:07;;;;;;;4.18;2.00;;;;;;;17.72;100.00;100628.28;5073641;28;20020;-73
2022/06/24 01:51:37;;;;;;;2.83;2.35;;;;;;;17.76;100.00;100630.72;5073992;28;20028;-73
2022/06/24 01:54:02;;;;;;;4.63;2.50;;;;;;;17.66;100.00;100628.66;5056260;28;20028;-73
2022/06/24 01:56:28;;;;;;;3.92;2.35;;;;;;;17.61;100.00;100625.41;5053311;28;20412;-73
2022/06/24 01:58:53;;;;;;;4.05;2.20;;;;;;;17.60;100.00;100626.38;5056726;28;20029;-72
2022/06/24 02:01:19;;;;;;;5.32;2.25;;;;;;;17.61;100.00;100628.06;5058201;28;20495;-72
2022/06/24 02:03:44;;;;;;;3.75;2.05;;;;;;;17.53;100.00;100617.94;5071532;28;20028;-73
2022/06/24 02:06:13;;;;;;;4.15;2.25;;;;;;;17.62;100.00;100619.19;5073378;28;20078;-72
2022/06/24 02:08:39;;;;;;;7.38;2.40;;;;;;;17.50;100.00;100613.69;5073040;28;20468;-73
2022/06/24 02:13:50;;;;;;;4.78;2.20;;;;;;;17.40;100.00;100638.88;5069025;28;20056;-72
2022/06/24 02:16:18;;;;;;;2.72;2.22;;;;;;;17.31;100.00;100631.47;5073898;28;20024;-72
2022/06/24 02:18:43;;;;;;;5.32;2.50;;;;;;;17.24;100.00;100627.47;5072687;28;20024;-73
2022/06/24 02:21:09;;;;;;;2.85;2.58;;;;;;;17.27;100.00;100624.66;5059559;28;20024;-73
2022/06/24 02:23:35;;;;;;;2.85;2.55;;;;;;;17.22;100.00;100624.06;5071642;28;20020;-72
2022/06/24 02:26:00;;;;;;;4.85;2.80;;;;;;;17.22;100.00;100617.00;5072975;28;20024;-72
2022/06/24 02:28:26;;;;;;;6.20;2.90;;;;;;;17.19;100.00;100606.63;5071385;28;20067;-72
2022/06/24 02:30:53;;;;;;;4.85;3.38;;;;;;;17.42;100.00;100615.06;5071778;28;20021;-73
2022/06/24 02:33:19;;;;;;;3.95;2.97;;;;;;;17.41;100.00;100611.56;5065971;28;20020;-74
2022/06/24 02:35:44;;;;;;;4.05;3.20;;;;;;;17.28;100.00;100605.28;5073070;28;20027;-74
2022/06/24 02:38:09;;;;;;;5.30;3.20;;;;;;;17.23;100.00;100604.66;5072522;28;20020;-75
2022/06/24 02:40:51;;;;;;;4.05;3.50;;;;;;;17.24;100.00;100594.06;5072186;28;20089;-74
2022/06/24 02:43:25;;;;;;;3.60;3.30;;;;;;;17.31;100.00;100589.31;5063666;28;20024;-74
2022/06/24 02:45:52;;;;;;;4.75;3.05;;;;;;;17.25;100.00;100587.84;5071871;28;20055;-73
2022/06/24 02:48:19;;;;;;;3.65;3.22;;;;;;;17.17;100.00;100592.72;5073357;28;20116;-74
2022/06/24 02:50:46;;;;;;;4.03;3.30;;;;;;;17.23;100.00;100581.84;5070859;28;20024;-74
2022/06/24 02:53:12;;;;;;;5.15;3.28;;;;;;;17.19;100.00;100588.19;5066266;28;20032;-73
2022/06/24 02:55:38;;;;;;;4.50;3.55;;;;;;;17.29;100.00;100575.34;5068825;28;20048;-74
2022/06/24 02:58:05;;;;;;;5.80;3.45;;;;;;;17.33;100.00;100571.63;5065999;28;20041;-74
2022/06/24 03:00:30;;;;;;;5.40;3.60;;;;;;;17.32;100.00;100572.56;5067010;28;20031;-73
2022/06/24 03:02:55;;;;;;;5.13;3.58;;;;;;;17.31;100.00;100565.59;5057916;28;20037;-73
2022/06/24 03:05:21;;;;;;;4.25;3.03;;;;;;;17.23;100.00;100565.16;5071102;28;20070;-73
2022/06/24 03:07:46;;;;;;;3.80;2.80;;;;;;;17.17;100.00;100560.25;5071632;28;20103;-73
2022/06/24 03:10:11;;;;;;;4.65;3.20;;;;;;;17.05;100.00;100562.59;5072386;28;20033;-73
2022/06/24 03:12:37;;;;;;;4.03;3.63;;;;;;;17.11;100.00;100569.34;5068455;28;20065;-73
2022/06/24 03:15:02;;;;;;;5.05;3.53;;;;;;;17.06;100.00;100559.03;5066366;28;20108;-73
2022/06/24 03:17:27;;;;;;;5.22;3.75;;;;;;;17.19;100.00;100556.56;5072913;28;20595;-73
2022/06/24 03:19:53;;;;;;;4.95;3.75;;;;;;;17.18;100.00;100556.69;5071793;28;20529;-73
2022/06/24 03:22:18;;;;;;;4.95;4.13;;;;;;;17.08;100.00;100553.69;5070362;28;20040;-73
2022/06/24 03:24:43;;;;;;;5.72;4.57;;;;;;;17.16;100.00;100553.25;5072251;28;20455;-73
2022/06/24 03:27:09;;;;;;;5.18;4.00;;;;;;;17.13;100.00;100558.69;5070473;28;20111;-73
2022/06/24 03:29:34;;;;;;;5.85;4.38;;;;;;;17.03;100.00;100561.84;5071447;28;20024;-73
2022/06/24 03:31:59;;;;;;;4.95;4.05;;;;;;;16.97;100.00;100559.56;5060900;28;20471;-73
2022/06/24 03:34:24;;;;;;;4.43;4.03;;;;;;;17.00;100.00;100562.03;5071360;28;20115;-73
2022/06/24 03:36:50;;;;;;;5.85;4.40;;;;;;;17.01;100.00;100540.03;5071705;28;20384;-73
2022/06/24 03:39:15;;;;;;;6.85;4.78;;;;;;;16.96;100.00;100536.78;5072409;28;20048;-73
2022/06/24 03:41:40;;;;;;;5.57;4.50;;;;;;;16.93;100.00;100536.09;5069883;28;20073;-73
2022/06/24 03:44:06;;;;;;;6.43;4.63;;;;;;;16.85;100.00;100539.16;5072100;28;20051;-73
2022/06/24 03:46:31;;;;;;;5.78;5.13;;;;;;;16.87;100.00;100541.69;5072203;28;20033;-73
2022/06/24 03:48:56;;;;;;;7.70;5.70;;;;;;;16.95;100.00;100540.34;5070865;28;20025;-73
2022/06/24 03:51:21;;;;;;;8.07;5.30;;;;;;;16.85;100.00;100549.69;5069753;28;20085;-73
2022/06/24 03:53:47;;;;;;;6.78;5.93;;;;;;;16.85;100.00;100561.06;5071204;28;20024;-73
2022/06/24 03:56:12;;;;;;;7.43;5.95;;;;;;;16.89;100.00;100572.28;5070432;28;20041;-73
2022/06/24 03:58:37;;;;;;;10.55;6.95;;;;;;;16.93;100.00;100571.16;5071586;28;20025;-73
2022/06/24 04:01:03;;;;;;;7.45;6.53;;;;;;;17.01;100.00;100574.25;5069823;28;20056;-73
2022/06/24 04:03:29;;;;;;;11.23;7.10;;;;;;;17.01;100.00;100578.69;5054130;28;20060;-73
2022/06/24 04:05:54;;;;;;;7.85;6.88;;;;;;;16.99;100.00;100583.16;5071410;28;20032;-73
2022/06/24 04:08:19;;;;;;;10.73;7.35;;;;;;;17.05;100.00;100588.94;5071497;28;20032;-73
2022/06/24 04:10:45;;;;;;;9.27;7.43;;;;;;;17.02;100.00;100583.84;5063860;28;20020;-73
2022/06/24 04:13:10;;;;;;;8.65;7.20;;;;;;;16.99;100.00;100593.69;5068558;28;20028;-73
2022/06/24 04:15:35;;;;;;;10.10;8.35;;;;;;;16.97;100.00;100601.69;5070902;28;20078;-73
2022/06/24 04:18:01;;;;;;;12.80;9.02;;;;;;;17.01;100.00;100603.22;5071323;28;20032;-73
2022/06/24 04:20:27;;;;;;;10.48;8.85;;;;;;;17.12;100.00;100602.63;5071581;28;20037;-73
2022/06/24 04:22:52;;;;;;;9.65;8.00;;;;;;;17.11;100.00;100603.56;5070048;28;20040;-73
2022/06/24 04:25:18;;;;;;;9.82;8.48;;;;;;;17.05;100.00;100603.91;5068787;28;20025;-73
2022/06/24 04:27:43;;;;;;;10.52;8.90;;;;;;;17.09;100.00;100610.69;5071133;28;20473;-73
2022/06/24 04:30:11;;;;;;;14.75;8.95;;;;;;;17.08;100.00;100614.28;5071902;28;20033;-73
2022/06/24 04:32:37;;;;;;;11.50;9.27;;;;;;;17.07;100.00;100609.94;5058849;28;20029;-73
2022/06/24 04:35:04;;;;;;;11.15;8.82;;;;;;;17.12;100.00;100601.78;5065658;28;20025;-73
2022/06/24 04:37:29;;;;;;;12.13;9.57;;;;;;;17.14;100.00;100598.13;5071507;28;20044;-73
2022/06/24 04:39:57;;;;;;;10.57;9.50;;;;;;;17.13;100.00;100598.22;5070609;28;20024;-73
2022/06/24 04:42:22;;;;;;;10.48;9.48;;;;;;;17.16;100.00;100593.63;5070139;28;20029;-73
2022/06/24 04:44:47;;;;;;;11.27;9.85;;;;;;;17.23;100.00;100597.66;5070240;28;20079;-73
2022/06/24 04:47:13;;;;;;;11.45;10.23;;;;;;;17.19;100.00;100590.81;5071514;28;20032;-73
2022/06/24 04:49:38;;;;;;;11.57;10.38;;;;;;;17.21;100.00;100590.75;5070734;28;20029;-73
2022/06/24 04:52:05;;;;;;;12.00;10.70;;;;;;;17.19;100.00;100589.97;5070508;28;20368;-73
2022/06/24 04:54:30;;;;;;;12.98;10.55;;;;;;;17.24;100.00;100593.22;5068633;28;20028;-73
2022/06/24 04:56:55;;;;;;;11.80;10.52;;;;;;;17.26;100.00;100594.81;5074788;28;20121;-73
2022/06/24 04:59:20;;;;;;;15.43;11.25;;;;;;;17.36;100.00;100595.16;5074811;28;20025;-73
2022/06/24 05:01:46;;;;;;;12.45;10.07;;;;;;;17.41;100.00;100601.03;5066815;28;20082;-73
2022/06/24 05:04:13;;;;;;;12.73;10.75;;;;;;;17.44;100.00;100595.59;5063866;28;20483;-73
2022/06/24 05:06:38;;;;;;;15.85;11.55;;;;;;;17.47;100.00;100603.31;5074150;28;20108;-73
2022/06/24 05:09:03;;;;;;;14.50;11.27;;;;;;;17.54;100.00;100602.03;5075349;28;20059;-73
2022/06/24 05:11:28;;;;;;;14.13;11.68;;;;;;;17.58;100.00;100604.50;5066928;28;20477;-73
2022/06/24 05:13:54;;;;;;;12.70;11.40;;;;;;;17.62;100.00;100595.47;5072040;28;20024;-73
2022/06/24 05:16:19;;;;;;;15.10;11.80;;;;;;;17.66;100.00;100592.59;5075100;28;20408;-72
2022/06/24 05:18:45;;;;;;;14.55;12.13;;;;;;;17.76;100.00;100600.84;5073965;28;20024;-73
2022/06/24 05:21:10;;;;;;;14.52;12.82;;;;;;;17.79;100.00;100600.69;5072604;28;20067;-73
2022/06/24 05:23:35;;;;;;;14.60;11.77;;;;;;;17.83;100.00;100599.56;5068883;28;20476;-73
2022/06/24 05:26:00;;;;;;;13.95;12.48;;;;;;;17.89;100.00;100609.78;5074784;28;20551;-72
2022/06/24 05:28:26;;;;;;;13.27;11.98;;;;;;;17.83;100.00;100615.41;5074404;28;20032;-72
2022/06/24 05:30:55;;;;;;;14.40;12.20;;;;;;;17.78;100.00;100617.44;5074177;28;20812;-73
2022/06/24 05:33:21;;;;;;;15.60;12.75;;;;;;;17.82;100.00;100613.72;5072527;28;20476;-73
2022/06/24 05:35:46;;;;;;;14.23;12.32;;;;;;;17.82;100.00;100608.44;5073624;28;20081;-73
2022/06/24 05:38:11;;;;;;;17.35;14.13;;;;;;;17.90;100.00;100623.81;5071533;28;20077;-73
2022/06/24 05:40:37;;;;;;;14.15;12.65;;;;;;;17.88;100.00;100613.31;5073729;28;20033;-72
2022/06/24 05:43:02;;;;;;;15.65;13.95;;;;;;;17.90;100.00;100619.38;5064047;28;20162;-73
2022/06/24 05:45:27;;;;;;;15.65;14.02;;;;;;;17.89;100.00;100611.56;5071068;28;20085;-73
2022/06/24 05:47:52;;;;;;;18.45;15.25;;;;;;;17.93;100.00;100608.66;5064654;28;20045;-73
2022/06/24 05:50:18;;;;;;;18.38;14.98;;;;;;;17.89;100.00;100609.78;5066618;28;20060;-73
2022/06/24 05:55:27;;;;;;;19.13;15.05;;;;;;;17.97;100.00;100602.25;5073521;28;20099;-73
2022/06/24 05:57:52;;;;;;;21.15;16.40;;;;;;;17.97;100.00;100604.88;5069873;28;20068;-73
2022/06/24 06:00:18;;;;;;;24.40;18.30;;;;;;;17.98;100.00;100601.34;5071129;28;20178;-73
2022/06/24 06:02:43;;;;;;;27.45;18.65;;;;;;;17.99;100.00;100605.66;5058153;28;20538;-74
2022/06/24 06:05:08;;;;;;;30.25;20.20;;;;;;;17.99;100.00;100595.13;5070982;28;20179;-75
2022/06/24 06:07:33;;;;;;;27.77;19.63;;;;;;;18.06;100.00;100600.88;5073588;28;20056;-75
2022/06/24 06:10:02;;;;;;;33.80;22.48;;;;;;;18.06;100.00;100605.31;5067991;28;20448;-74
2022/06/24 06:12:27;;;;;;;35.00;21.67;;;;;;;18.05;100.00;100611.50;5065756;28;20543;-74
2022/06/24 06:14:52;;;;;;;30.30;21.27;;;;;;;18.01;100.00;100606.41;5067818;28;20024;-74
2022/06/24 06:17:18;;;;;;;35.38;22.08;;;;;;;18.04;100.00;100610.66;5073318;28;20021;-74
2022/06/24 06:19:43;;;;;;;44.70;24.63;;;;;;;18.15;100.00;100610.06;5073100;28;20431;-74
2022/06/24 06:22:08;;;;;;;57.22;26.20;;;;;;;18.16;100.00;100611.75;5072742;28;20032;-74
2022/06/24 06:24:33;;;;;;;64.15;29.67;;;;;;;18.13;100.00;100606.66;5072754;28;20025;-74
2022/06/24 06:26:59;;;;;;;59.45;28.90;;;;;;;18.11;100.00;100605.88;5073493;28;20046;-74
2022/06/24 06:29:25;;;;;;;58.70;27.67;;;;;;;18.19;100.00;100606.28;5057663;28;20163;-74
2022/06/24 06:31:53;;;;;;;83.55;29.30;;;;;;;18.19;100.00;100614.19;5064810;28;20021;-73
2022/06/24 06:34:19;;;;;;;47.00;26.60;;;;;;;18.21;100.00;100614.94;5073639;28;20021;-74
2022/06/24 06:36:45;;;;;;;42.90;25.15;;;;;;;18.22;100.00;100609.59;5072880;28;20025;-74
2022/06/24 06:39:10;;;;;;;38.50;25.08;;;;;;;18.17;100.00;100608.16;5069977;28;20047;-74
2022/06/24 06:41:35;;;;;;;47.22;26.80;;;;;;;18.22;100.00;100603.47;5072085;28;20078;-74
2022/06/24 06:44:01;;;;;;;40.00;24.88;;;;;;;18.19;100.00;100608.94;5070546;28;20033;-73
2022/06/24 06:46:26;;;;;;;45.97;27.35;;;;;;;18.27;100.00;100605.81;5075691;28;20036;-74
2022/06/24 06:48:51;;;;;;;51.60;31.55;;;;;;;18.36;100.00;100610.56;5071067;28;20546;-74
2022/06/24 06:51:16;;;;;;;48.63;30.90;;;;;;;18.31;100.00;100607.34;5073012;28;20115;-74
2022/06/24 06:53:42;;;;;;;48.40;30.05;;;;;;;18.22;100.00;100604.31;5071713;28;20070;-74
2022/06/24 06:56:07;;;;;;;43.55;29.27;;;;;;;18.19;100.00;100603.66;5072585;28;20135;-75
2022/06/24 06:58:32;;;;;;;52.30;31.77;;;;;;;18.18;100.00;100599.28;5072276;28;20020;-74
2022/06/24 07:00:58;;;;;;;43.10;28.23;;;;;;;18.17;100.00;100601.09;5072559;28;20024;-74
2022/06/24 07:03:23;;;;;;;52.78;30.92;;;;;;;18.26;100.00;100604.97;5058645;28;20044;-74
2022/06/24 07:05:50;;;;;;;51.20;31.10;;;;;;;18.19;100.00;100601.00;5072037;28;20111;-74
2022/06/24 07:08:15;;;;;;;51.53;30.38;;;;;;;18.16;100.00;100606.47;5072895;28;20020;-74
2022/06/24 07:10:41;;;;;;;77.50;37.72;;;;;;;18.30;100.00;100601.22;5071925;28;20032;-74
2022/06/24 07:13:07;;;;;;;74.65;37.65;;;;;;;18.38;100.00;100604.25;5071857;28;20043;-74
2022/06/24 07:15:33;;;;;;;61.47;38.22;;;;;;;18.32;100.00;100587.94;5072298;28;20021;-74
2022/06/24 07:17:59;;;;;;;62.05;36.47;;;;;;;18.28;100.00;100587.28;5072241;28;20224;-74
2022/06/24 07:20:24;;;;;;;60.83;35.58;;;;;;;18.36;100.00;100584.16;5072083;28;20084;-74
2022/06/24 07:22:49;;;;;;;66.43;39.03;;;;;;;18.55;100.00;100578.63;5071996;28;20028;-74
2022/06/24 07:25:15;;;;;;;73.05;40.75;;;;;;;18.76;100.00;100585.25;5072189;28;20040;-73
2022/06/24 07:27:40;;;;;;;62.83;40.03;;;;;;;18.77;100.00;100586.97;5071353;28;20025;-74
2022/06/24 07:30:06;;;;;;;65.63;39.90;;;;;;;18.75;100.00;100583.56;5072401;28;20031;-73
2022/06/24 07:32:31;;;;;;;65.75;38.78;;;;;;;18.75;100.00;100588.00;5072138;28;20032;-74
2022/06/24 07:34:57;;;;;;;56.65;35.90;;;;;;;18.70;100.00;100598.81;5071594;28;20028;-73
2022/06/24 07:37:22;;;;;;;65.18;41.08;;;;;;;18.63;100.00;100600.97;5072185;28;20067;-73
2022/06/24 07:39:47;;;;;;;65.70;42.05;;;;;;;18.57;100.00;100609.25;5071534;28;20035;-73
2022/06/24 07:42:12;;;;;;;75.75;44.03;;;;;;;18.62;100.00;100617.75;5071550;28;20032;-73
2022/06/24 07:44:42;;;;;;;70.05;43.70;;;;;;;18.54;100.00;100629.72;5071443;28;20027;-73
2022/06/24 07:47:08;;;;;;;71.80;43.88;;;;;;;18.55;100.00;100628.78;5072347;28;20102;-73
2022/06/24 07:49:34;;;;;;;78.25;47.75;;;;;;;18.58;100.00;100631.25;5071089;28;20475;-73
2022/06/24 07:51:59;;;;;;;86.85;49.38;;;;;;;18.72;100.00;100631.28;5072124;28;20068;-73
2022/06/24 07:54:24;;;;;;;98.40;55.63;;;;;;;18.82;100.00;100635.06;5071605;28;20033;-74
2022/06/24 07:56:59;;;;;;;96.75;54.20;;;;;;;18.82;100.00;100634.22;5071054;28;20020;-73
2022/06/24 07:59:29;;;;;;;96.05;53.05;;;;;;;18.77;100.00;100626.59;5071677;28;20055;-73
2022/06/24 08:01:55;;;;;;;96.90;53.75;;;;;;;18.86;100.00;100627.78;5066643;28;20056;-73
2022/06/24 08:04:22;;;;;;;91.45;52.80;;;;;;;18.87;100.00;100630.38;5062253;28;20078;-73
2022/06/24 08:06:49;;;;;;;92.95;52.92;;;;;;;18.89;100.00;100636.38;5070905;28;20361;-73
2022/06/24 08:09:17;;;;;;;92.55;55.03;;;;;;;19.00;100.00;100632.22;5071436;28;20025;-73
2022/06/24 08:11:42;;;;;;;97.05;53.95;;;;;;;19.05;100.00;100630.16;5071577;28;20048;-73
2022/06/24 08:14:08;;;;;;;76.70;48.30;;;;;;;19.05;100.00;100627.50;5071903;28;20048;-73
2022/06/24 08:16:33;;;;;;;65.55;45.80;;;;;;;19.13;100.00;100627.91;5071172;28;20540;-73
2022/06/24 08:18:58;;;;;;;68.68;45.20;;;;;;;19.16;100.00;100630.31;5071692;28;20037;-73
2022/06/24 08:21:24;;;;;;;71.22;46.63;;;;;;;19.17;100.00;100629.41;5071485;28;20024;-73
2022/06/24 08:23:49;;;;;;;68.75;45.80;;;;;;;19.15;100.00;100615.44;5070661;28;20427;-73
2022/06/24 08:26:16;;;;;;;75.72;46.50;;;;;;;19.40;100.00;100623.50;5071059;28;20013;-73
2022/06/24 08:28:41;;;;;;;72.80;48.70;;;;;;;19.64;100.00;100615.81;5070640;28;20074;-73
2022/06/24 08:31:07;;;;;;;50.00;37.83;;;;;;;19.66;100.00;100615.72;5071299;28;20028;-73
2022/06/24 08:33:32;;;;;;;42.90;35.00;;;;;;;19.58;100.00;100613.53;5071190;28;20115;-73
2022/06/24 08:35:57;;;;;;;41.83;35.70;;;;;;;19.74;100.00;100613.41;5071072;28;20021;-73
2022/06/24 08:38:23;;;;;;;47.25;37.85;;;;;;;20.08;100.00;100614.69;5071224;28;20429;-73
2022/06/24 08:40:50;;;;;;;42.05;34.95;;;;;;;20.37;100.00;100614.50;5070791;28;20074;-73
2022/06/24 08:43:16;;;;;;;44.50;36.65;;;;;;;20.64;100.00;100618.94;5071182;28;20086;-73
2022/06/24 08:45:41;;;;;;;41.42;35.50;;;;;;;20.93;100.00;100620.41;5070450;28;20029;-73
2022/06/24 08:48:08;;;;;;;41.17;36.03;;;;;;;21.08;100.00;100618.44;5071659;28;20043;-73
2022/06/24 08:50:33;;;;;;;43.38;37.92;;;;;;;21.28;100.00;100612.56;5070826;28;20070;-73
2022/06/24 08:53:06;;;;;;;45.38;37.90;;;;;;;21.59;100.00;100615.69;5070516;28;20025;-73
2022/06/24 08:55:36;;;;;;;44.83;39.97;;;;;;;21.85;100.00;100611.13;5071108;28;20045;-73
2022/06/24 08:58:09;;;;;;;42.45;37.83;;;;;;;21.98;100.00;100611.91;5066440;28;20455;-72
2022/06/24 09:00:35;;;;;;;46.55;39.63;;;;;;;22.19;100.00;100606.78;5059451;28;20056;-72
2022/06/24 09:03:00;;;;;;;41.33;36.92;;;;;;;22.18;100.00;100607.78;5064524;28;20074;-73
2022/06/24 09:05:27;;;;;;;39.78;35.47;;;;;;;21.93;100.00;100605.22;5070655;28;20099;-73
2022/06/24 09:08:10;;;;;;;40.75;36.30;;;;;;;21.72;100.00;100619.13;5068212;28;20035;-72
2022/06/24 09:10:37;;;;;;;41.42;35.78;;;;;;;21.38;100.00;100615.44;5067659;28;20012;-76
2022/06/24 09:13:03;;;;;;;39.22;33.00;;;;;;;21.15;100.00;100613.56;5063526;28;20021;-76
2022/06/24 09:15:28;;;;;;;32.58;28.92;;;;;;;21.12;100.00;100604.00;5068738;28;20078;-76
2022/06/24 09:17:54;;;;;;;30.48;27.27;;;;;;;21.25;100.00;100609.28;5070478;28;20128;-76
2022/06/24 09:20:22;;;;;;;33.38;28.42;;;;;;;21.15;100.00;100614.41;5070957;28;20036;-76
2022/06/24 09:22:48;;;;;;;33.95;27.63;;;;;;;21.10;100.00;100599.81;5070353;28;20032;-76
2022/06/24 09:25:13;;;;;;;31.23;26.08;;;;;;;21.03;100.00;100616.13;5071251;28;20050;-76
2022/06/24 09:27:43;;;;;;;24.08;21.58;;;;;;;21.02;100.00;100614.41;5070099;28;20111;-76
2022/06/24 09:30:10;;;;;;;23.58;20.95;;;;;;;21.15;100.00;100611.75;5071256;28;20036;-76
2022/06/24 09:32:48;;;;;;;20.58;18.45;;;;;;;21.13;100.00;100605.72;5069910;28;20024;-76
2022/06/24 09:35:14;;;;;;;17.77;15.95;;;;;;;21.12;99.77;100603.16;5070525;28;20438;-76
2022/06/24 09:37:45;;;;;;;19.95;17.92;;;;;;;21.11;100.00;100602.34;5072878;28;20059;-76
2022/06/24 09:40:15;;;;;;;19.17;17.27;;;;;;;21.28;100.00;100603.75;5074681;28;20025;-75
2022/06/24 09:42:40;;;;;;;20.40;18.30;;;;;;;21.46;100.00;100596.34;5072486;28;20021;-73
2022/06/24 09:45:06;;;;;;;17.95;16.15;;;;;;;21.60;100.00;100600.63;5071247;28;20028;-72
2022/06/24 09:47:37;;;;;;;17.40;15.60;;;;;;;21.78;100.00;100601.94;5069244;28;20380;-73
2022/06/24 09:50:03;;;;;;;18.40;16.60;;;;;;;22.41;100.00;100592.72;5074434;28;20368;-73
2022/06/24 09:52:30;;;;;;;18.30;14.82;;;;;;;22.52;100.00;100591.06;5073976;28;20039;-73
2022/06/24 09:54:56;;;;;;;16.85;15.10;;;;;;;22.19;100.00;100596.19;5073209;28;20033;-72
2022/06/24 09:57:22;;;;;;;18.05;16.15;;;;;;;21.73;100.00;100598.75;5074401;28;20021;-73
2022/06/24 10:02:33;;;;;;;14.00;12.60;;;;;;;21.95;100.00;100606.81;5063922;28;20059;-72
2022/06/24 10:05:01;;;;;;;15.15;13.25;;;;;;;22.37;100.00;100609.03;5069089;28;20028;-73
2022/06/24 10:07:33;;;;;;;14.35;12.88;;;;;;;22.60;100.00;100612.56;5074123;28;20096;-73
2022/06/24 10:10:01;;;;;;;13.57;12.27;;;;;;;23.01;96.21;100608.50;5073447;28;20111;-72
2022/06/24 10:12:28;;;;;;;14.40;12.90;;;;;;;23.49;95.85;100593.06;5073842;28;20063;-72
2022/06/24 10:14:55;;;;;;;13.52;12.13;;;;;;;23.72;91.65;100598.34;5073268;28;20029;-73
2022/06/24 10:17:20;;;;;;;15.52;13.27;;;;;;;23.89;93.70;100599.63;5073246;28;20074;-73
2022/06/24 10:19:47;;;;;;;16.38;12.50;;;;;;;24.09;93.25;100605.94;5072982;28;20028;-73
2022/06/24 10:22:38;;;;;;;13.20;11.93;;;;;;;23.57;91.62;100627.03;5073660;28;20051;-72
2022/06/24 10:25:04;;;;;;;14.55;12.80;;;;;;;22.50;95.42;100664.69;5073779;28;20044;-72
2022/06/24 10:27:54;;;;;;;5.63;2.50;;;;;;;21.39;90.11;100662.22;5073295;28;20058;-72
2022/06/24 10:30:57;;;;;;;3.38;2.00;;;;;;;20.23;100.00;100662.25;5073334;28;20044;-73
2022/06/24 10:33:26;;;;;;;18.92;3.30;;;;;;;19.12;100.00;100665.81;5064536;28;20025;-74
2022/06/24 10:36:05;;;;;;;6.30;3.25;;;;;;;18.77;100.00;100663.56;5072768;28;20040;-75
2022/06/24 10:38:37;;;;;;;5.78;3.90;;;;;;;18.80;100.00;100658.09;5068415;28;20044;-74
2022/06/24 10:41:04;;;;;;;7.90;4.17;;;;;;;18.80;100.00;100658.09;5069667;28;20063;-75
2022/06/24 10:43:41;;;;;;;7.32;4.75;;;;;;;18.89;100.00;100661.94;5071216;28;20025;-75
2022/06/24 10:46:12;;;;;;;6.40;5.30;;;;;;;18.80;100.00;100665.13;5073289;28;20052;-75
2022/06/24 10:48:43;;;;;;;7.03;5.45;;;;;;;18.68;100.00;100679.91;5068241;28;20123;-74
2022/06/24 10:51:16;;;;;;;9.32;5.95;;;;;;;18.64;100.00;100686.34;5072623;28;20031;-75
2022/06/24 10:54:02;;;;;;;8.60;7.70;;;;;;;18.58;100.00;100676.13;5068897;28;20437;-74
2022/06/24 10:56:46;;;;;;;8.15;7.20;;;;;;;18.51;100.00;100673.00;5069964;28;20041;-74
2022/06/24 10:59:14;;;;;;;11.20;8.55;;;;;;;18.56;100.00;100656.88;5072653;28;20032;-75
2022/06/24 11:01:45;;;;;;;9.30;7.93;;;;;;;18.47;100.00;100663.53;5057840;28;20052;-74
2022/06/24 11:04:24;;;;;;;6.95;5.60;;;;;;;18.44;100.00;100659.31;5069754;28;20056;-80
2022/06/24 11:07:09;;;;;;;6.57;5.93;;;;;;;18.45;100.00;100658.38;5072034;28;20036;-79
2022/06/24 11:09:36;;;;;;;6.85;5.68;;;;;;;18.50;100.00;100652.81;5071812;28;20059;-79
2022/06/24 11:12:04;;;;;;;6.45;5.82;;;;;;;18.42;100.00;100653.28;5072303;28;20029;-79
2022/06/24 11:14:29;;;;;;;7.03;6.32;;;;;;;18.60;100.00;100650.47;5072788;28;20036;-79